CheckWX is a tool to help pilots better visualize weather data.  It is not intended as a substitute for an official pre-flight weather briefing.

13:33:53 UTC

OMDB METAR
Dubai International Airport
Dubai, United Arab Emirates
Current

34 mins ago

OMDB 201300Z 01010KT 350V050 9999 FEW030 36/18 Q1005 NOSIG
Observed
May-20 @ 13:00 UTC
Wind
  • 010° at 10 KTS
Visibility
10,000+ meters
Flight Rules
VFR
Cloud Levels
  • Few at 3,000' AGL
Temperature
36°C / 97°F
Dewpoint
18°C / 64°F
Humidity
34%
Altimeter
29.68" Hg
Pressure
1004.92 hPa
Previous

2 hours ago

OMDB 201200Z 01009KT 310V030 9999 FEW030 36/18 Q1006 NOSIG
Observed
May-20 @ 12:00 UTC
Wind
  • 010° at 9 KTS
Visibility
10,000+ meters
Flight Rules
VFR
Cloud Levels
  • Few at 3,000' AGL
Temperature
36°C / 97°F
Dewpoint
18°C / 64°F
Humidity
34%
Altimeter
29.7" Hg
Pressure
1005.92 hPa
Previous

3 hours ago

OMDB 201100Z 34010KT 260V020 9999 FEW030 36/18 Q1006 NOSIG
Observed
May-20 @ 11:00 UTC
Wind
  • 340° at 10 KTS
Visibility
10,000+ meters
Flight Rules
VFR
Cloud Levels
  • Few at 3,000' AGL
Temperature
36°C / 97°F
Dewpoint
18°C / 64°F
Humidity
34%
Altimeter
29.7" Hg
Pressure
1005.92 hPa